Time;durP1;ratioP1;P1;durP2;ratioP2;P2;SDS_P1;SDS_P2;PMS_P1;PMS_P2;Temp;Humidity;BMP_temperature;BMP_pressure;BME280_temperature;BME280_humidity;BME280_pressure;Samples;Min_cycle;Max_cycle;Signal;HPM_P1;HPM_P2
2022/05/07 00:01:43;;;;;;;28.45;18.00;;;11.50;99.90;;;;;;5013477;28;20030;-76
2022/05/07 00:04:09;;;;;;;26.88;19.13;;;11.50;99.90;;;;;;5013750;28;20033;-76
2022/05/07 00:06:34;;;;;;;27.38;17.92;;;11.50;99.90;;;;;;4995946;28;20063;-79
2022/05/07 00:09:00;;;;;;;27.02;17.67;;;11.50;99.90;;;;;;5012110;28;20392;-78
2022/05/07 00:11:25;;;;;;;27.30;20.13;;;11.60;99.90;;;;;;5011989;28;20135;-78
2022/05/07 00:13:51;;;;;;;30.83;19.30;;;11.50;99.90;;;;;;4995877;28;20025;-78
2022/05/07 00:19:02;;;;;;;26.73;18.30;;;11.60;99.90;;;;;;5013659;28;20049;-75
2022/05/07 00:21:27;;;;;;;25.48;17.73;;;11.60;99.90;;;;;;5013378;28;20018;-78
2022/05/07 00:23:53;;;;;;;27.98;17.48;;;11.60;99.90;;;;;;4995809;28;20029;-76
2022/05/07 00:26:18;;;;;;;26.17;16.48;;;11.60;99.90;;;;;;5013361;28;20115;-75
2022/05/07 00:28:45;;;;;;;27.20;18.60;;;11.60;99.90;;;;;;5013611;28;20026;-76
2022/05/07 00:31:11;;;;;;;25.55;17.15;;;11.50;99.90;;;;;;5013100;28;20030;-75
2022/05/07 00:33:37;;;;;;;22.58;15.55;;;11.50;99.90;;;;;;5013413;28;20487;-79
2022/05/07 00:36:03;;;;;;;20.85;12.75;;;11.50;99.90;;;;;;5013585;28;20030;-75
2022/05/07 00:38:29;;;;;;;22.35;15.95;;;11.50;99.90;;;;;;5017176;28;20077;-79
2022/05/07 00:40:55;;;;;;;22.30;14.82;;;11.60;99.90;;;;;;5017205;28;20073;-79
2022/05/07 00:43:21;;;;;;;20.52;13.68;;;11.60;99.90;;;;;;5017115;28;20089;-76
2022/05/07 00:45:47;;;;;;;24.08;13.15;;;11.60;99.90;;;;;;5017011;28;20032;-75
2022/05/07 00:48:16;;;;;;;24.55;13.20;;;11.60;99.90;;;;;;4999420;28;20121;-76
2022/05/07 00:53:27;;;;;;;22.50;15.38;;;11.60;99.90;;;;;;5016961;28;20064;-79
2022/05/07 00:55:53;;;;;;;16.10;11.57;;;11.60;99.90;;;;;;4999311;28;20018;-79
2022/05/07 00:58:19;;;;;;;20.05;14.68;;;11.60;99.90;;;;;;5016878;28;20400;-78
2022/05/07 01:00:45;;;;;;;25.50;15.63;;;11.60;99.90;;;;;;5016829;28;20033;-78
2022/05/07 01:03:11;;;;;;;19.45;14.27;;;11.60;99.90;;;;;;5016857;28;20045;-78
2022/05/07 01:05:38;;;;;;;21.10;14.65;;;11.60;99.90;;;;;;5016737;28;20514;-75
2022/05/07 01:08:05;;;;;;;20.85;13.13;;;11.60;99.90;;;;;;5016614;28;20423;-76
2022/05/07 01:10:31;;;;;;;17.02;12.02;;;11.60;99.90;;;;;;5016358;28;20130;-75
2022/05/07 01:12:57;;;;;;;19.15;14.20;;;11.60;99.90;;;;;;5016596;28;20034;-78
2022/05/07 01:15:24;;;;;;;18.35;11.32;;;11.60;99.90;;;;;;5016540;28;20037;-79
2022/05/07 01:17:50;;;;;;;16.33;11.63;;;11.60;99.90;;;;;;4998870;28;20026;-76
2022/05/07 01:20:15;;;;;;;14.13;9.85;;;11.60;99.90;;;;;;5015139;28;20193;-77
2022/05/07 01:22:42;;;;;;;7.68;6.40;;;11.60;99.90;;;;;;5015192;28;20419;-78
2022/05/07 01:25:08;;;;;;;9.40;7.05;;;11.60;99.00;;;;;;4998788;28;20030;-78
2022/05/07 01:27:34;;;;;;;9.55;5.82;;;11.60;91.00;;;;;;5015023;28;20140;-76
2022/05/07 01:29:59;;;;;;;12.00;5.60;;;11.60;84.00;;;;;;5016502;28;20053;-79
2022/05/07 01:32:25;;;;;;;10.45;5.95;;;11.70;79.00;;;;;;5015992;28;20081;-75
2022/05/07 01:34:53;;;;;;;8.43;5.95;;;11.70;79.90;;;;;;5015882;28;20018;-79
2022/05/07 01:37:19;;;;;;;12.40;7.10;;;11.80;84.10;;;;;;5016144;28;20029;-78
2022/05/07 01:39:45;;;;;;;8.30;6.45;;;11.80;84.50;;;;;;4998421;28;20058;-78
2022/05/07 01:42:10;;;;;;;9.18;6.00;;;11.80;78.00;;;;;;4998374;28;20062;-75
2022/05/07 01:44:36;;;;;;;9.52;6.57;;;11.80;77.00;;;;;;5015948;28;20025;-79
2022/05/07 01:49:45;;;;;;;9.80;6.75;;;11.70;76.30;;;;;;5015618;28;20091;-76
2022/05/07 01:52:11;;;;;;;11.00;7.13;;;11.70;76.00;;;;;;5015456;28;20112;-76
2022/05/07 01:54:38;;;;;;;8.38;5.97;;;11.80;76.60;;;;;;5015691;28;20065;-80
2022/05/07 01:57:04;;;;;;;10.82;6.63;;;11.80;75.70;;;;;;5014334;28;20022;-79
2022/05/07 01:59:29;;;;;;;11.80;7.03;;;11.80;75.90;;;;;;5015688;28;20029;-79
2022/05/07 02:01:55;;;;;;;10.25;7.18;;;11.80;75.60;;;;;;5014254;28;20053;-75
2022/05/07 02:04:20;;;;;;;10.35;7.30;;;11.80;75.00;;;;;;5015573;28;20509;-75
2022/05/07 02:06:46;;;;;;;11.15;6.35;;;11.80;73.10;;;;;;5015480;28;20101;-80
2022/05/07 02:09:11;;;;;;;11.93;7.07;;;11.80;71.90;;;;;;5015454;28;20522;-76
2022/05/07 02:11:37;;;;;;;16.15;7.03;;;11.80;71.70;;;;;;5015210;28;20096;-79
2022/05/07 02:14:03;;;;;;;10.38;6.97;;;11.80;71.70;;;;;;5014140;28;20050;-78
2022/05/07 02:16:28;;;;;;;13.68;6.85;;;11.80;71.90;;;;;;5015399;28;20034;-79
2022/05/07 02:18:54;;;;;;;8.98;6.93;;;11.80;70.80;;;;;;5015487;28;20030;-75
2022/05/07 02:21:19;;;;;;;10.70;7.10;;;11.90;71.50;;;;;;5015183;28;20500;-76
2022/05/07 02:23:45;;;;;;;11.80;6.60;;;11.90;71.40;;;;;;5015069;28;20029;-80
2022/05/07 02:26:11;;;;;;;11.10;7.05;;;11.90;71.60;;;;;;5015190;28;20479;-75
2022/05/07 02:28:37;;;;;;;9.43;6.30;;;11.90;80.00;;;;;;4997749;28;20476;-77
2022/05/07 02:31:02;;;;;;;8.10;6.43;;;11.90;78.80;;;;;;5013697;28;20018;-76
2022/05/07 02:33:28;;;;;;;6.57;4.95;;;11.90;78.10;;;;;;5015102;28;20026;-75
2022/05/07 02:35:53;;;;;;;7.63;5.22;;;11.90;69.60;;;;;;4997417;28;20460;-76
2022/05/07 02:38:19;;;;;;;7.28;4.82;;;11.90;66.80;;;;;;5014901;28;20022;-76
2022/05/07 02:43:29;;;;;;;9.50;5.22;;;11.90;65.90;;;;;;5015010;28;20179;-79
2022/05/07 02:45:54;;;;;;;10.02;5.53;;;11.90;67.50;;;;;;5014921;28;20113;-77
2022/05/07 02:48:21;;;;;;;10.27;4.95;;;11.90;68.20;;;;;;5014730;28;20419;-76
2022/05/07 02:50:47;;;;;;;5.85;4.43;;;11.90;67.80;;;;;;5014581;28;20046;-75
2022/05/07 02:53:12;;;;;;;7.85;5.47;;;12.00;70.70;;;;;;5014878;28;20026;-77
2022/05/07 02:55:38;;;;;;;12.40;6.82;;;11.90;76.80;;;;;;5014627;28;20407;-79
2022/05/07 02:58:04;;;;;;;11.05;8.02;;;11.90;84.20;;;;;;5014581;28;20467;-76
2022/05/07 03:00:29;;;;;;;14.23;8.35;;;11.80;91.60;;;;;;5013560;28;20030;-79
2022/05/07 03:02:55;;;;;;;14.73;7.93;;;11.80;99.90;;;;;;5014505;28;20034;-75
2022/05/07 03:05:20;;;;;;;13.07;8.02;;;11.80;99.90;;;;;;5014476;28;20068;-79
2022/05/07 03:07:46;;;;;;;11.43;8.18;;;11.70;99.90;;;;;;5013198;28;20076;-79
2022/05/07 03:10:12;;;;;;;14.73;8.98;;;11.70;99.90;;;;;;5013017;28;20109;-76
2022/05/07 03:12:37;;;;;;;11.52;6.95;;;11.70;99.90;;;;;;5014187;28;20054;-79
2022/05/07 03:15:04;;;;;;;11.10;7.72;;;11.60;99.90;;;;;;5013120;28;20104;-76
2022/05/07 03:17:34;;;;;;;15.00;8.18;;;11.60;99.90;;;;;;5014423;28;20021;-78
2022/05/07 03:20:00;;;;;;;13.25;7.05;;;11.60;99.90;;;;;;5014167;28;20030;-79
2022/05/07 03:22:26;;;;;;;8.38;7.18;;;11.50;99.90;;;;;;5014075;28;20037;-76
2022/05/07 03:24:51;;;;;;;8.98;5.95;;;11.60;99.90;;;;;;5014085;28;20026;-79
2022/05/07 03:27:17;;;;;;;9.70;6.07;;;11.50;99.90;;;;;;4996503;28;20113;-76
2022/05/07 03:29:42;;;;;;;9.85;6.45;;;11.50;93.50;;;;;;5013954;28;20060;-76
2022/05/07 03:32:09;;;;;;;9.82;7.50;;;11.50;93.20;;;;;;5013941;28;20044;-79
2022/05/07 03:34:35;;;;;;;12.50;8.77;;;11.50;99.90;;;;;;5012671;28;20437;-76
2022/05/07 03:37:00;;;;;;;15.30;9.18;;;11.50;99.90;;;;;;5013917;28;20101;-76
2022/05/07 03:39:28;;;;;;;11.10;8.10;;;11.50;99.90;;;;;;5013871;28;20369;-77
2022/05/07 03:41:54;;;;;;;16.27;8.52;;;11.50;99.90;;;;;;4996167;28;20029;-76
2022/05/07 03:44:20;;;;;;;8.38;7.03;;;11.50;99.90;;;;;;5013809;28;20034;-75
2022/05/07 03:46:45;;;;;;;14.55;9.55;;;11.50;99.90;;;;;;5013664;28;20026;-75
2022/05/07 03:49:11;;;;;;;14.68;10.05;;;11.50;99.90;;;;;;5013748;28;20475;-79
2022/05/07 03:54:21;;;;;;;16.15;10.00;;;11.40;98.40;;;;;;5014122;28;20030;-75
2022/05/07 03:56:46;;;;;;;13.57;9.60;;;11.40;96.30;;;;;;5013742;28;20026;-75
2022/05/07 03:59:12;;;;;;;13.63;9.15;;;11.40;96.00;;;;;;5013644;28;20026;-76
2022/05/07 04:01:37;;;;;;;13.63;8.10;;;11.40;94.50;;;;;;5013630;28;20030;-75
2022/05/07 04:04:03;;;;;;;10.65;8.55;;;11.50;94.10;;;;;;5012352;28;20049;-79
2022/05/07 04:06:29;;;;;;;11.52;8.60;;;11.50;95.10;;;;;;4995888;28;20072;-79
2022/05/07 04:08:54;;;;;;;11.40;6.55;;;11.60;97.30;;;;;;5013670;28;20046;-75
2022/05/07 04:11:20;;;;;;;12.07;7.05;;;11.60;90.10;;;;;;5012812;28;20435;-79
2022/05/07 04:13:45;;;;;;;9.35;5.35;;;11.60;84.80;;;;;;5013378;28;20033;-75
2022/05/07 04:16:11;;;;;;;9.38;5.43;;;11.60;80.10;;;;;;4995849;28;20034;-75
2022/05/07 04:18:37;;;;;;;9.48;5.22;;;11.60;79.30;;;;;;4995677;28;20025;-79
2022/05/07 04:21:03;;;;;;;9.55;5.25;;;11.70;79.90;;;;;;4995427;28;20395;-79
2022/05/07 04:23:30;;;;;;;8.27;5.50;;;11.70;77.60;;;;;;5013127;28;20029;-79
2022/05/07 04:25:56;;;;;;;6.88;5.30;;;11.80;76.30;;;;;;5013149;28;20022;-79
2022/05/07 04:28:21;;;;;;;9.38;5.35;;;11.80;76.20;;;;;;5012910;28;20022;-79
2022/05/07 04:30:47;;;;;;;10.82;5.45;;;11.90;76.00;;;;;;5013012;28;20029;-75
2022/05/07 04:33:14;;;;;;;9.18;5.10;;;11.90;75.90;;;;;;5009765;28;20450;-75
2022/05/07 04:35:40;;;;;;;6.13;4.70;;;12.00;75.40;;;;;;5000870;28;20172;-75
2022/05/07 04:38:06;;;;;;;7.32;5.20;;;12.00;75.40;;;;;;5000057;28;20117;-75
2022/05/07 04:40:31;;;;;;;8.32;5.13;;;12.00;75.60;;;;;;4995140;28;20026;-75
2022/05/07 04:42:57;;;;;;;9.82;5.15;;;12.10;77.70;;;;;;5013096;28;20026;-77
2022/05/07 04:45:23;;;;;;;6.15;5.18;;;12.20;79.50;;;;;;5006783;28;20022;-79
2022/05/07 04:47:48;;;;;;;10.52;4.85;;;12.20;79.70;;;;;;4993660;28;20027;-79
2022/05/07 04:50:14;;;;;;;8.35;5.50;;;12.30;79.30;;;;;;4998967;28;20064;-79
2022/05/07 04:52:39;;;;;;;10.40;5.43;;;12.30;77.10;;;;;;5001450;28;20138;-79
2022/05/07 04:55:06;;;;;;;6.82;4.90;;;12.30;74.80;;;;;;4995619;28;20022;-79
2022/05/07 04:57:31;;;;;;;10.20;5.40;;;12.40;74.00;;;;;;4975813;28;20018;-79
2022/05/07 04:59:57;;;;;;;7.70;4.78;;;12.40;74.50;;;;;;4993142;28;20069;-75
2022/05/07 05:02:23;;;;;;;9.85;5.38;;;12.40;76.40;;;;;;4991793;28;20400;-74
2022/05/07 05:04:49;;;;;;;12.27;5.90;;;12.50;77.10;;;;;;4992722;28;20105;-75
2022/05/07 05:07:14;;;;;;;6.60;4.88;;;12.50;77.90;;;;;;4993229;28;20392;-76
2022/05/07 05:09:40;;;;;;;7.53;5.07;;;12.60;78.90;;;;;;4993245;28;20439;-75
2022/05/07 05:12:06;;;;;;;10.88;6.32;;;12.60;76.20;;;;;;4992659;28;20094;-79
2022/05/07 05:17:37;;;;;;;8.68;6.30;;;12.70;73.80;;;;;;4971809;28;20070;-75
2022/05/07 05:20:04;;;;;;;8.90;5.75;;;12.80;72.50;;;;;;4971429;28;20023;-76
2022/05/07 05:22:32;;;;;;;8.98;5.65;;;12.80;72.10;;;;;;4982093;28;20451;-75
2022/05/07 05:24:57;;;;;;;7.85;5.88;;;12.90;79.00;;;;;;4981211;28;20439;-79
2022/05/07 05:27:24;;;;;;;12.82;6.80;;;12.90;81.20;;;;;;5007684;28;20026;-79
2022/05/07 05:29:50;;;;;;;10.15;6.88;;;12.90;78.10;;;;;;5016087;28;20060;-79
2022/05/07 05:32:19;;;;;;;14.90;8.48;;;12.90;78.20;;;;;;5015830;28;20037;-80
2022/05/07 05:34:47;;;;;;;16.00;10.23;;;12.90;79.10;;;;;;4998279;28;20018;-80
2022/05/07 05:37:15;;;;;;;27.88;14.45;;;13.00;79.80;;;;;;5015896;28;20022;-79
2022/05/07 05:39:41;;;;;;;15.70;9.45;;;13.00;77.30;;;;;;5003008;28;20557;-75
2022/05/07 05:42:07;;;;;;;15.50;8.63;;;13.00;75.50;;;;;;5005116;28;20101;-75
2022/05/07 05:44:37;;;;;;;15.38;9.35;;;13.10;75.50;;;;;;5011034;28;20030;-77
2022/05/07 05:47:03;;;;;;;19.13;10.23;;;13.20;75.80;;;;;;4998505;28;20104;-79
2022/05/07 05:49:28;;;;;;;20.98;12.27;;;13.20;75.80;;;;;;5015673;28;20508;-76
2022/05/07 05:51:54;;;;;;;13.82;8.32;;;13.30;75.00;;;;;;5001714;28;20078;-79
2022/05/07 05:54:19;;;;;;;19.90;11.13;;;13.40;74.60;;;;;;4996093;28;20033;-79
2022/05/07 05:56:45;;;;;;;18.05;11.68;;;13.50;76.70;;;;;;4978721;28;20026;-79
2022/05/07 05:59:11;;;;;;;16.35;7.97;;;13.60;75.10;;;;;;4996079;28;20026;-75
2022/05/07 06:01:37;;;;;;;17.23;5.65;;;13.70;71.60;;;;;;4995738;28;20054;-75
2022/05/07 06:04:03;;;;;;;8.07;4.80;;;13.70;69.60;;;;;;4995907;28;20034;-75
2022/05/07 06:06:31;;;;;;;9.02;4.95;;;13.70;67.10;;;;;;4993441;28;20057;-76
2022/05/07 06:08:57;;;;;;;8.63;5.45;;;13.80;67.30;;;;;;4992574;28;20062;-75
2022/05/07 06:11:22;;;;;;;11.88;5.47;;;13.90;69.70;;;;;;4975062;28;20078;-76
2022/05/07 06:13:48;;;;;;;7.00;4.65;;;13.90;68.10;;;;;;4992853;28;20078;-76
2022/05/07 06:16:14;;;;;;;22.50;12.60;;;14.00;68.20;;;;;;5005738;28;20080;-76
2022/05/07 06:18:40;;;;;;;16.35;11.45;;;13.90;65.90;;;;;;4995344;28;20491;-76
2022/05/07 06:21:05;;;;;;;11.77;6.28;;;13.90;65.70;;;;;;5003824;28;20018;-77
2022/05/07 06:23:32;;;;;;;11.18;5.68;;;13.80;65.70;;;;;;4976390;28;20038;-76
2022/05/07 06:28:42;;;;;;;9.15;6.35;;;13.80;65.90;;;;;;4994328;28;20085;-76
2022/05/07 06:31:10;;;;;;;10.07;5.90;;;13.80;65.00;;;;;;4976687;28;20031;-76
2022/05/07 06:33:39;;;;;;;9.10;5.65;;;13.70;63.60;;;;;;4976769;28;20115;-76
2022/05/07 06:36:06;;;;;;;9.55;5.47;;;13.70;63.10;;;;;;4994086;28;20034;-76
2022/05/07 06:38:33;;;;;;;10.25;6.97;;;13.70;63.40;;;;;;4993546;28;20145;-76
2022/05/07 06:41:02;;;;;;;15.65;6.40;;;13.70;62.80;;;;;;4993106;28;20389;-75
2022/05/07 06:43:31;;;;;;;9.52;5.40;;;13.60;63.00;;;;;;4976559;28;20169;-76
2022/05/07 06:45:58;;;;;;;9.77;6.30;;;13.60;63.30;;;;;;5003987;28;20021;-75
2022/05/07 06:48:24;;;;;;;7.32;5.65;;;13.70;63.90;;;;;;5013336;28;20034;-75
2022/05/07 06:50:51;;;;;;;9.68;6.68;;;13.60;64.20;;;;;;4996148;28;20499;-76
2022/05/07 06:53:16;;;;;;;9.75;5.38;;;13.70;65.20;;;;;;4994888;28;20053;-76
2022/05/07 06:56:01;;;;;;;10.48;6.13;;;13.80;66.20;;;;;;4996007;28;20022;-76
2022/05/07 06:58:31;;;;;;;7.45;5.93;;;13.80;66.60;;;;;;4995652;28;20041;-77
2022/05/07 07:00:59;;;;;;;11.75;6.85;;;13.80;66.80;;;;;;5013602;28;20495;-76
2022/05/07 07:03:26;;;;;;;10.43;6.18;;;13.90;68.00;;;;;;5013182;28;20480;-77
2022/05/07 07:05:53;;;;;;;11.57;6.88;;;14.00;67.80;;;;;;4995997;28;20033;-76
2022/05/07 07:08:19;;;;;;;9.75;6.82;;;14.00;67.80;;;;;;4994986;28;20117;-76
2022/05/07 07:10:45;;;;;;;10.30;5.47;;;14.10;67.40;;;;;;5013431;28;20123;-76
2022/05/07 07:13:11;;;;;;;11.82;5.28;;;14.20;67.00;;;;;;5013155;28;20042;-76
2022/05/07 07:15:39;;;;;;;7.22;5.60;;;14.30;66.90;;;;;;5013245;28;20057;-75
2022/05/07 07:18:09;;;;;;;8.93;5.55;;;14.50;66.80;;;;;;4996117;28;20022;-79
2022/05/07 07:20:38;;;;;;;7.25;5.80;;;14.60;65.10;;;;;;5012548;28;20360;-79
2022/05/07 07:23:04;;;;;;;10.95;5.63;;;14.70;64.70;;;;;;4979140;28;20040;-79
2022/05/07 07:25:30;;;;;;;13.13;5.90;;;14.90;63.10;;;;;;5012316;28;20038;-78
2022/05/07 07:27:56;;;;;;;9.07;5.22;;;15.00;63.20;;;;;;5012490;28;20029;-79
2022/05/07 07:30:21;;;;;;;8.55;5.07;;;15.10;62.60;;;;;;5008755;28;20935;-79
2022/05/07 07:32:48;;;;;;;11.40;5.80;;;15.20;62.00;;;;;;4993066;28;20483;-79
2022/05/07 07:35:14;;;;;;;9.02;4.93;;;15.30;61.10;;;;;;5002368;28;20053;-78
2022/05/07 07:37:39;;;;;;;6.90;5.25;;;15.30;60.00;;;;;;4995448;28;20027;-80
2022/05/07 07:40:06;;;;;;;6.97;4.78;;;15.40;60.00;;;;;;4992905;28;20092;-79
2022/05/07 07:42:31;;;;;;;10.18;6.00;;;15.50;59.40;;;;;;4975264;28;20088;-78
2022/05/07 07:50:32;;;;;;;5.85;4.40;;;15.70;58.90;;;;;;5012247;28;20045;-78
2022/05/07 07:53:03;;;;;;;9.70;5.05;;;15.70;57.80;;;;;;5003765;28;20113;-78
2022/05/07 07:55:30;;;;;;;6.03;4.50;;;15.80;59.10;;;;;;4992146;28;20030;-76
2022/05/07 07:57:58;;;;;;;8.38;4.70;;;15.90;58.40;;;;;;5000061;28;20114;-79
2022/05/07 08:00:25;;;;;;;8.70;5.43;;;15.90;57.60;;;;;;4992588;28;20022;-78
2022/05/07 08:02:53;;;;;;;10.02;4.82;;;15.80;57.60;;;;;;4976482;28;20034;-79
2022/05/07 08:05:24;;;;;;;10.15;5.70;;;15.80;57.10;;;;;;4992477;28;20030;-79
2022/05/07 08:13:19;;;;;;;7.10;4.57;;;16.10;58.30;;;;;;4993874;28;20052;-77
2022/05/07 08:15:48;;;;;;;6.80;4.72;;;16.10;59.80;;;;;;4993693;28;20488;-76
2022/05/07 08:18:14;;;;;;;9.43;4.40;;;16.20;59.00;;;;;;4993725;28;20027;-81
2022/05/07 08:20:44;;;;;;;5.18;4.47;;;16.30;59.00;;;;;;5011434;28;20057;-77
2022/05/07 08:23:10;;;;;;;11.45;4.80;;;16.30;58.20;;;;;;4995445;28;20026;-76
2022/05/07 08:25:36;;;;;;;10.98;4.88;;;16.30;57.80;;;;;;4995377;28;20014;-76
2022/05/07 08:28:03;;;;;;;6.82;4.57;;;16.40;58.40;;;;;;4995050;28;20033;-76
2022/05/07 08:30:30;;;;;;;5.85;4.78;;;16.40;58.20;;;;;;5013004;28;20026;-76
2022/05/07 08:32:56;;;;;;;12.70;4.85;;;16.40;57.60;;;;;;4993952;28;20029;-77
2022/05/07 08:35:21;;;;;;;6.85;3.88;;;16.50;58.80;;;;;;4992647;28;20022;-76
2022/05/07 08:37:47;;;;;;;6.80;4.28;;;16.60;57.50;;;;;;4995632;28;20026;-82
2022/05/07 08:40:17;;;;;;;7.35;4.10;;;16.80;58.90;;;;;;5012864;28;20446;-82
2022/05/07 08:42:44;;;;;;;6.03;3.97;;;16.90;56.70;;;;;;4993157;28;20030;-76
2022/05/07 08:45:13;;;;;;;9.52;4.35;;;17.00;57.00;;;;;;4992810;28;20487;-82
2022/05/07 08:47:40;;;;;;;13.20;6.10;;;17.30;57.00;;;;;;5011194;28;20331;-82
2022/05/07 08:50:14;;;;;;;11.68;4.97;;;17.70;56.80;;;;;;5011178;28;20045;-80
2022/05/07 08:52:44;;;;;;;5.95;4.28;;;17.80;53.70;;;;;;5011135;28;20061;-76
2022/05/07 08:55:15;;;;;;;6.45;4.05;;;18.00;54.30;;;;;;4993453;28;20084;-76
2022/05/07 08:57:42;;;;;;;5.38;3.97;;;18.10;55.10;;;;;;5014374;28;20037;-76
2022/05/07 09:00:10;;;;;;;8.82;4.95;;;18.30;54.00;;;;;;4999296;28;20113;-80
2022/05/07 09:02:41;;;;;;;5.82;3.90;;;18.60;54.30;;;;;;4999281;28;20388;-77
2022/05/07 09:05:09;;;;;;;8.80;4.63;;;18.80;54.40;;;;;;4999265;28;20021;-88
2022/05/07 09:07:34;;;;;;;8.63;3.90;;;18.80;51.70;;;;;;5016853;28;20052;-78
2022/05/07 09:10:00;;;;;;;10.23;4.10;;;18.80;51.80;;;;;;5016763;28;20022;-78
2022/05/07 09:12:28;;;;;;;7.80;4.70;;;18.80;50.90;;;;;;4995635;28;20546;-78
2022/05/07 09:15:04;;;;;;;8.52;4.40;;;18.70;51.10;;;;;;4995775;28;20094;-78
2022/05/07 09:17:30;;;;;;;11.32;5.50;;;18.70;52.20;;;;;;4997122;28;20030;-78
2022/05/07 09:19:56;;;;;;;9.63;6.78;;;18.60;49.60;;;;;;4995802;28;20081;-86
2022/05/07 09:22:22;;;;;;;9.95;5.15;;;18.60;50.90;;;;;;4995700;28;20030;-83
2022/05/07 09:24:55;;;;;;;8.57;5.13;;;18.60;50.90;;;;;;4995732;28;20031;-79
2022/05/07 09:27:24;;;;;;;16.98;6.97;;;18.50;50.40;;;;;;4995648;28;20062;-79
2022/05/07 09:30:02;;;;;;;9.20;5.75;;;18.30;50.90;;;;;;4997035;28;20444;-79
2022/05/07 09:32:35;;;;;;;10.20;7.38;;;18.50;51.30;;;;;;4996851;28;20058;-79
2022/05/07 09:37:46;;;;;;;5.70;4.05;;;18.50;52.30;;;;;;4997223;28;20045;-88
2022/05/07 09:40:12;;;;;;;9.73;4.18;;;18.50;50.50;;;;;;4995269;28;20046;-88
2022/05/07 09:42:39;;;;;;;17.73;11.98;;;18.40;50.90;;;;;;4996772;28;20022;-78
2022/05/07 09:45:07;;;;;;;10.57;7.10;;;18.50;51.90;;;;;;4995372;28;20446;-79
2022/05/07 09:47:33;;;;;;;10.00;5.65;;;18.50;51.30;;;;;;4996829;28;20061;-79
2022/05/07 09:50:20;;;;;;;8.23;4.38;;;18.50;50.10;;;;;;4996662;28;20022;-88
2022/05/07 09:58:20;;;;;;;8.30;6.68;;;18.50;49.50;;;;;;4996338;28;20049;-79
2022/05/07 10:01:25;;;;;;;11.63;7.03;;;18.60;50.90;;;;;;4994949;28;20023;-79
2022/05/07 10:04:28;;;;;;;8.27;4.00;;;18.70;51.10;;;;;;4996323;28;20030;-88
2022/05/07 10:07:21;;;;;;;6.45;4.88;;;18.80;50.70;;;;;;4996152;28;20034;-89
2022/05/07 10:10:02;;;;;;;6.47;4.30;;;18.70;50.30;;;;;;4995560;28;20128;-79
2022/05/07 10:12:28;;;;;;;7.35;4.88;;;18.70;51.20;;;;;;4994655;28;20042;-89
2022/05/07 10:15:05;;;;;;;10.10;4.95;;;18.70;50.00;;;;;;4994871;28;20054;-79
2022/05/07 10:17:31;;;;;;;9.93;4.82;;;18.80;48.60;;;;;;4996067;28;20033;-89
2022/05/07 10:20:09;;;;;;;29.27;24.42;;;18.90;48.70;;;;;;4996045;28;20030;-79
2022/05/07 10:22:35;;;;;;;7.82;4.65;;;18.90;48.60;;;;;;4994736;28;20014;-89
2022/05/07 10:25:10;;;;;;;7.32;5.10;;;18.90;48.20;;;;;;4995815;28;20027;-89
2022/05/07 10:27:43;;;;;;;8.70;5.38;;;19.10;50.20;;;;;;4994639;28;20018;-79
2022/05/07 10:30:17;;;;;;;14.02;7.55;;;19.20;49.90;;;;;;4995938;28;20052;-88
2022/05/07 10:33:03;;;;;;;9.98;5.43;;;19.40;48.80;;;;;;4994588;28;20030;-89
2022/05/07 10:35:54;;;;;;;8.82;5.50;;;19.50;47.90;;;;;;4994421;28;20093;-80
2022/05/07 10:38:37;;;;;;;9.27;6.43;;;19.80;48.70;;;;;;4995733;28;20570;-79
2022/05/07 10:41:09;;;;;;;6.10;4.25;;;19.70;46.30;;;;;;4995487;28;20022;-80
2022/05/07 10:43:56;;;;;;;13.20;9.90;;;19.70;46.70;;;;;;4994293;28;20030;-80
2022/05/07 10:46:22;;;;;;;17.95;9.93;;;19.40;46.50;;;;;;4994083;28;20061;-80
2022/05/07 10:48:56;;;;;;;25.23;18.08;;;19.40;47.50;;;;;;4995407;28;20105;-80
2022/05/07 10:51:36;;;;;;;20.13;12.23;;;19.40;48.20;;;;;;4994030;28;20026;-80
2022/05/07 10:54:24;;;;;;;7.80;4.60;;;19.50;49.70;;;;;;4995425;28;20106;-89
2022/05/07 10:56:58;;;;;;;22.35;14.50;;;19.30;48.70;;;;;;4995194;28;20385;-89
2022/05/07 10:59:26;;;;;;;6.22;4.65;;;19.20;49.20;;;;;;4995681;28;20380;-80
2022/05/07 11:02:02;;;;;;;10.75;6.07;;;19.20;49.10;;;;;;4993943;28;20056;-80
2022/05/07 11:04:28;;;;;;;8.50;6.07;;;19.00;48.50;;;;;;4994061;28;20026;-89
2022/05/07 11:06:54;;;;;;;10.70;5.68;;;19.00;49.90;;;;;;4995123;28;20418;-80
2022/05/07 11:09:22;;;;;;;8.02;4.22;;;19.00;50.90;;;;;;4993925;28;20030;-89
2022/05/07 11:11:54;;;;;;;8.50;5.82;;;19.10;50.70;;;;;;4993596;28;20121;-80
2022/05/07 11:14:26;;;;;;;10.60;5.68;;;19.10;48.40;;;;;;4995134;28;20373;-80
2022/05/07 11:16:57;;;;;;;17.88;8.18;;;19.00;49.50;;;;;;4993630;28;20118;-88
2022/05/07 11:19:31;;;;;;;66.45;24.60;;;19.10;49.30;;;;;;4993685;28;20058;-80
2022/05/07 11:21:59;;;;;;;12.80;6.22;;;18.90;49.50;;;;;;4994078;28;20023;-88
2022/05/07 11:24:25;;;;;;;12.32;6.22;;;18.70;49.30;;;;;;4994815;28;20474;-80
2022/05/07 11:26:53;;;;;;;9.75;4.35;;;18.90;50.00;;;;;;4993477;28;20122;-88
2022/05/07 11:29:19;;;;;;;5.90;4.25;;;18.90;50.20;;;;;;4993529;28;20029;-80
2022/05/07 11:31:54;;;;;;;9.45;4.97;;;18.90;50.20;;;;;;4993293;28;20030;-89
2022/05/07 11:34:37;;;;;;;9.70;6.53;;;19.00;50.40;;;;;;4994748;28;20030;-81
2022/05/07 11:37:20;;;;;;;26.67;19.77;;;19.20;49.80;;;;;;4993396;28;20014;-88
2022/05/07 11:39:50;;;;;;;;;;;19.40;51.50;;;;;;4993786;28;20026;-81
2022/05/07 11:42:29;;;;;;;10.30;6.57;;;19.30;48.70;;;;;;4993350;28;19913;-81
2022/05/07 11:47:57;;;;;;;8.80;6.10;;;19.30;48.10;;;;;;4994770;28;20092;-89
2022/05/07 11:50:29;;;;;;;10.63;5.32;;;19.30;48.50;;;;;;4993562;28;20034;-81
2022/05/07 11:52:55;;;;;;;13.40;7.20;;;19.30;48.40;;;;;;4994415;28;20492;-89
2022/05/07 11:55:29;;;;;;;17.23;8.38;;;19.20;47.90;;;;;;4993275;28;20273;-87
2022/05/07 11:57:56;;;;;;;10.52;4.93;;;19.10;49.00;;;;;;4994473;28;20480;-89
2022/05/07 12:00:26;;;;;;;8.27;5.50;;;18.90;49.20;;;;;;4994294;28;20034;-89
2022/05/07 12:02:54;;;;;;;7.30;5.00;;;18.90;50.20;;;;;;4993467;28;20053;-81
2022/05/07 12:05:21;;;;;;;8.10;4.35;;;18.80;50.40;;;;;;4992660;28;20023;-82
2022/05/07 12:07:49;;;;;;;6.20;4.47;;;18.70;50.40;;;;;;4991863;28;20041;-83
2022/05/07 12:10:16;;;;;;;25.15;10.80;;;18.70;50.90;;;;;;4993171;28;20080;-78
2022/05/07 12:12:42;;;;;;;10.00;4.05;;;18.70;51.80;;;;;;5010652;28;20061;-76
2022/05/07 12:15:08;;;;;;;7.05;4.28;;;18.60;51.00;;;;;;5013400;28;20030;-77
2022/05/07 12:17:52;;;;;;;11.23;5.65;;;18.60;51.20;;;;;;4995676;28;20555;-84
2022/05/07 12:20:19;;;;;;;7.93;4.50;;;18.60;52.00;;;;;;5013317;28;20025;-84
2022/05/07 12:30:58;;;;;;;8.52;4.07;;;18.40;51.90;;;;;;4998963;28;20096;-76
2022/05/07 12:33:24;;;;;;;24.33;10.70;;;18.50;52.70;;;;;;4978287;28;20038;-76
2022/05/07 12:35:49;;;;;;;9.43;5.90;;;18.50;52.50;;;;;;4997264;28;20026;-76
2022/05/07 12:38:15;;;;;;;8.00;4.53;;;18.50;52.40;;;;;;4996134;28;20033;-76
2022/05/07 12:40:41;;;;;;;7.80;4.50;;;18.70;52.40;;;;;;4979877;28;20411;-85
2022/05/07 12:43:07;;;;;;;14.77;6.28;;;18.80;50.80;;;;;;5003687;28;20029;-86
2022/05/07 12:45:35;;;;;;;7.78;5.00;;;18.70;50.90;;;;;;5004180;28;20066;-85
2022/05/07 12:48:00;;;;;;;8.77;4.32;;;18.60;50.60;;;;;;5015599;28;20052;-86
2022/05/07 12:50:26;;;;;;;10.70;4.75;;;18.60;50.40;;;;;;5015251;28;20081;-86
2022/05/07 12:52:52;;;;;;;10.27;6.07;;;18.70;50.80;;;;;;4997965;28;20127;-86
2022/05/07 12:55:17;;;;;;;10.65;5.05;;;18.80;50.30;;;;;;5015547;28;20034;-86
2022/05/07 12:57:43;;;;;;;8.40;4.88;;;18.80;49.70;;;;;;4998346;28;20022;-83
2022/05/07 13:00:09;;;;;;;9.38;5.28;;;18.60;49.00;;;;;;4997770;28;20117;-87
2022/05/07 13:02:35;;;;;;;11.40;5.03;;;18.60;50.50;;;;;;5016063;28;20030;-88
2022/05/07 13:05:01;;;;;;;11.88;6.65;;;18.50;49.50;;;;;;5015546;28;20444;-86
2022/05/07 13:07:28;;;;;;;10.50;5.25;;;18.40;49.70;;;;;;5014999;28;20434;-85
2022/05/07 13:09:53;;;;;;;11.55;5.70;;;18.50;49.70;;;;;;5014374;28;20472;-85
2022/05/07 13:12:20;;;;;;;8.98;5.22;;;18.60;50.70;;;;;;5015182;28;20112;-83
2022/05/07 13:14:45;;;;;;;13.27;6.13;;;18.60;50.90;;;;;;5014170;28;20037;-84
2022/05/07 13:17:11;;;;;;;12.73;5.43;;;18.60;50.50;;;;;;5014381;28;20038;-83
2022/05/07 13:19:37;;;;;;;13.38;4.95;;;18.80;51.40;;;;;;5013940;28;20033;-83
2022/05/07 13:22:03;;;;;;;8.60;4.63;;;18.90;51.50;;;;;;5012789;28;20022;-84
2022/05/07 13:24:30;;;;;;;8.25;4.30;;;19.00;50.90;;;;;;4997355;28;20426;-84
2022/05/07 13:26:55;;;;;;;9.38;4.65;;;19.00;50.50;;;;;;5015078;28;20022;-86
2022/05/07 13:29:21;;;;;;;7.65;4.35;;;19.10;50.80;;;;;;5014076;28;20025;-86
2022/05/07 13:31:46;;;;;;;11.07;5.60;;;19.00;50.10;;;;;;5014571;28;20038;-84
2022/05/07 13:34:12;;;;;;;6.55;3.45;;;18.80;49.90;;;;;;5014970;28;20014;-75